sensor_id;sensor_type;location;lat;lon;timestamp;temperature;humidity
2723;DHT22;1369;53.216;10.396;2023-05-07T00:01:06;9.90;99.90
2723;DHT22;1369;53.216;10.396;2023-05-07T00:03:31;9.90;99.90
2723;DHT22;1369;53.216;10.396;2023-05-07T00:05:58;9.90;99.90
2723;DHT22;1369;53.216;10.396;2023-05-07T00:08:23;9.90;99.90
2723;DHT22;1369;53.216;10.396;2023-05-07T00:10:49;9.90;99.90
2723;DHT22;1369;53.216;10.396;2023-05-07T00:13:15;9.90;99.90
2723;DHT22;1369;53.216;10.396;2023-05-07T00:15:40;10.00;99.90
2723;DHT22;1369;53.216;10.396;2023-05-07T00:18:06;10.10;99.90
2723;DHT22;1369;53.216;10.396;2023-05-07T00:20:31;10.10;99.90
2723;DHT22;1369;53.216;10.396;2023-05-07T00:22:57;10.10;99.90
2723;DHT22;1369;53.216;10.396;2023-05-07T00:25:22;10.00;99.90
2723;DHT22;1369;53.216;10.396;2023-05-07T00:27:48;10.00;99.90
2723;DHT22;1369;53.216;10.396;2023-05-07T00:30:13;9.90;99.90
2723;DHT22;1369;53.216;10.396;2023-05-07T00:32:39;9.90;99.90
2723;DHT22;1369;53.216;10.396;2023-05-07T00:35:05;9.90;99.90
2723;DHT22;1369;53.216;10.396;2023-05-07T00:37:31;9.90;99.90
2723;DHT22;1369;53.216;10.396;2023-05-07T00:39:57;9.90;99.90
2723;DHT22;1369;53.216;10.396;2023-05-07T00:42:22;9.80;99.90
2723;DHT22;1369;53.216;10.396;2023-05-07T00:44:49;9.80;99.90
2723;DHT22;1369;53.216;10.396;2023-05-07T00:47:16;9.80;99.90
2723;DHT22;1369;53.216;10.396;2023-05-07T00:49:42;9.90;99.90
2723;DHT22;1369;53.216;10.396;2023-05-07T00:52:11;9.90;99.90
2723;DHT22;1369;53.216;10.396;2023-05-07T00:54:36;9.90;99.90
2723;DHT22;1369;53.216;10.396;2023-05-07T00:57:03;9.90;99.90
2723;DHT22;1369;53.216;10.396;2023-05-07T00:59:30;10.00;99.90
2723;DHT22;1369;53.216;10.396;2023-05-07T01:01:57;9.90;99.90
2723;DHT22;1369;53.216;10.396;2023-05-07T01:04:22;9.80;99.90
2723;DHT22;1369;53.216;10.396;2023-05-07T01:06:48;9.80;99.90
2723;DHT22;1369;53.216;10.396;2023-05-07T01:09:14;9.80;99.90
2723;DHT22;1369;53.216;10.396;2023-05-07T01:11:40;9.80;99.90
2723;DHT22;1369;53.216;10.396;2023-05-07T01:14:07;9.90;99.90
2723;DHT22;1369;53.216;10.396;2023-05-07T01:16:34;10.00;99.90
2723;DHT22;1369;53.216;10.396;2023-05-07T01:19:00;9.90;99.90
2723;DHT22;1369;53.216;10.396;2023-05-07T01:21:26;9.90;99.90
2723;DHT22;1369;53.216;10.396;2023-05-07T01:23:53;9.90;99.90
2723;DHT22;1369;53.216;10.396;2023-05-07T01:26:20;9.90;99.90
2723;DHT22;1369;53.216;10.396;2023-05-07T01:28:47;9.80;99.90
2723;DHT22;1369;53.216;10.396;2023-05-07T01:31:13;9.80;99.90
2723;DHT22;1369;53.216;10.396;2023-05-07T01:33:40;9.80;99.90
2723;DHT22;1369;53.216;10.396;2023-05-07T01:36:09;9.90;99.90
2723;DHT22;1369;53.216;10.396;2023-05-07T01:38:36;9.80;99.90
2723;DHT22;1369;53.216;10.396;2023-05-07T01:41:02;9.80;99.90
2723;DHT22;1369;53.216;10.396;2023-05-07T01:43:29;9.70;99.90
2723;DHT22;1369;53.216;10.396;2023-05-07T01:45:55;9.70;99.90
2723;DHT22;1369;53.216;10.396;2023-05-07T01:48:22;9.80;99.90
2723;DHT22;1369;53.216;10.396;2023-05-07T01:50:49;9.80;99.90
2723;DHT22;1369;53.216;10.396;2023-05-07T01:53:15;9.80;99.90
2723;DHT22;1369;53.216;10.396;2023-05-07T01:55:40;9.80;99.90
2723;DHT22;1369;53.216;10.396;2023-05-07T01:58:06;9.90;99.90
2723;DHT22;1369;53.216;10.396;2023-05-07T02:00:32;9.70;99.90
2723;DHT22;1369;53.216;10.396;2023-05-07T02:02:57;9.80;99.90
2723;DHT22;1369;53.216;10.396;2023-05-07T02:05:23;9.80;99.90
2723;DHT22;1369;53.216;10.396;2023-05-07T02:07:49;9.70;99.90
2723;DHT22;1369;53.216;10.396;2023-05-07T02:10:14;9.80;99.90
2723;DHT22;1369;53.216;10.396;2023-05-07T02:12:40;9.80;99.90
2723;DHT22;1369;53.216;10.396;2023-05-07T02:15:06;9.80;99.90
2723;DHT22;1369;53.216;10.396;2023-05-07T02:17:31;9.80;99.90
2723;DHT22;1369;53.216;10.396;2023-05-07T02:19:58;9.80;99.90
2723;DHT22;1369;53.216;10.396;2023-05-07T02:22:24;9.80;99.90
2723;DHT22;1369;53.216;10.396;2023-05-07T02:24:50;9.70;99.90
2723;DHT22;1369;53.216;10.396;2023-05-07T02:27:15;9.70;99.90
2723;DHT22;1369;53.216;10.396;2023-05-07T02:29:41;9.70;99.90
2723;DHT22;1369;53.216;10.396;2023-05-07T02:32:06;9.70;99.90
2723;DHT22;1369;53.216;10.396;2023-05-07T02:34:32;9.70;99.90
2723;DHT22;1369;53.216;10.396;2023-05-07T02:36:57;9.70;99.90
2723;DHT22;1369;53.216;10.396;2023-05-07T02:39:23;9.70;99.90
2723;DHT22;1369;53.216;10.396;2023-05-07T02:41:48;9.70;99.90
2723;DHT22;1369;53.216;10.396;2023-05-07T02:44:14;9.70;99.90
2723;DHT22;1369;53.216;10.396;2023-05-07T02:46:39;9.70;99.90
2723;DHT22;1369;53.216;10.396;2023-05-07T02:49:05;9.70;99.90
2723;DHT22;1369;53.216;10.396;2023-05-07T02:51:31;9.60;99.90
2723;DHT22;1369;53.216;10.396;2023-05-07T02:53:56;9.70;99.90
2723;DHT22;1369;53.216;10.396;2023-05-07T02:56:22;9.60;99.90
2723;DHT22;1369;53.216;10.396;2023-05-07T02:58:47;9.60;99.90
2723;DHT22;1369;53.216;10.396;2023-05-07T03:01:13;9.60;99.90
2723;DHT22;1369;53.216;10.396;2023-05-07T03:03:40;9.60;99.90
2723;DHT22;1369;53.216;10.396;2023-05-07T03:06:06;9.60;99.90
2723;DHT22;1369;53.216;10.396;2023-05-07T03:08:32;9.60;99.90
2723;DHT22;1369;53.216;10.396;2023-05-07T03:10:58;9.70;99.90
2723;DHT22;1369;53.216;10.396;2023-05-07T03:13:23;9.70;99.90
2723;DHT22;1369;53.216;10.396;2023-05-07T03:15:49;9.60;99.90
2723;DHT22;1369;53.216;10.396;2023-05-07T03:18:14;9.60;99.90
2723;DHT22;1369;53.216;10.396;2023-05-07T03:20:40;9.70;99.90
2723;DHT22;1369;53.216;10.396;2023-05-07T03:23:05;9.70;99.90
2723;DHT22;1369;53.216;10.396;2023-05-07T03:25:32;9.60;99.90
2723;DHT22;1369;53.216;10.396;2023-05-07T03:27:57;9.60;99.90
2723;DHT22;1369;53.216;10.396;2023-05-07T03:30:23;9.70;99.90
2723;DHT22;1369;53.216;10.396;2023-05-07T03:32:49;9.70;99.90
2723;DHT22;1369;53.216;10.396;2023-05-07T03:35:14;9.70;99.90
2723;DHT22;1369;53.216;10.396;2023-05-07T03:37:40;9.60;99.90
2723;DHT22;1369;53.216;10.396;2023-05-07T03:40:06;9.60;99.90
2723;DHT22;1369;53.216;10.396;2023-05-07T03:42:33;9.60;99.90
2723;DHT22;1369;53.216;10.396;2023-05-07T03:44:58;9.70;99.90
2723;DHT22;1369;53.216;10.396;2023-05-07T03:47:24;9.70;99.90
2723;DHT22;1369;53.216;10.396;2023-05-07T03:49:49;9.70;99.90
2723;DHT22;1369;53.216;10.396;2023-05-07T03:52:15;9.60;99.90
2723;DHT22;1369;53.216;10.396;2023-05-07T03:54:41;9.70;99.90
2723;DHT22;1369;53.216;10.396;2023-05-07T03:57:06;9.70;99.90
2723;DHT22;1369;53.216;10.396;2023-05-07T03:59:32;9.80;99.90
2723;DHT22;1369;53.216;10.396;2023-05-07T04:01:58;9.70;99.90
2723;DHT22;1369;53.216;10.396;2023-05-07T04:04:23;9.70;99.90
2723;DHT22;1369;53.216;10.396;2023-05-07T04:06:49;9.70;99.90
2723;DHT22;1369;53.216;10.396;2023-05-07T04:09:14;9.70;99.90
2723;DHT22;1369;53.216;10.396;2023-05-07T04:11:40;9.70;99.90
2723;DHT22;1369;53.216;10.396;2023-05-07T04:14:06;9.70;99.90
2723;DHT22;1369;53.216;10.396;2023-05-07T04:16:31;9.70;99.90
2723;DHT22;1369;53.216;10.396;2023-05-07T04:18:57;9.80;99.90
2723;DHT22;1369;53.216;10.396;2023-05-07T04:21:22;9.70;99.90
2723;DHT22;1369;53.216;10.396;2023-05-07T04:23:48;9.70;99.90
2723;DHT22;1369;53.216;10.396;2023-05-07T04:26:15;9.70;99.90
2723;DHT22;1369;53.216;10.396;2023-05-07T04:28:41;9.70;99.90
2723;DHT22;1369;53.216;10.396;2023-05-07T04:31:07;9.80;99.90
2723;DHT22;1369;53.216;10.396;2023-05-07T04:33:32;9.80;99.90
2723;DHT22;1369;53.216;10.396;2023-05-07T04:36:01;9.80;99.90
2723;DHT22;1369;53.216;10.396;2023-05-07T04:38:29;9.80;99.90
2723;DHT22;1369;53.216;10.396;2023-05-07T04:40:55;9.80;99.90
2723;DHT22;1369;53.216;10.396;2023-05-07T04:43:21;9.90;99.90
2723;DHT22;1369;53.216;10.396;2023-05-07T04:45:46;9.90;99.90
2723;DHT22;1369;53.216;10.396;2023-05-07T04:48:12;9.90;99.90
2723;DHT22;1369;53.216;10.396;2023-05-07T04:50:39;9.90;99.90
2723;DHT22;1369;53.216;10.396;2023-05-07T04:53:06;9.90;99.90
2723;DHT22;1369;53.216;10.396;2023-05-07T04:55:31;10.00;99.90
2723;DHT22;1369;53.216;10.396;2023-05-07T04:57:57;10.00;99.90
2723;DHT22;1369;53.216;10.396;2023-05-07T05:00:22;10.00;99.90
2723;DHT22;1369;53.216;10.396;2023-05-07T05:02:48;10.00;99.90
2723;DHT22;1369;53.216;10.396;2023-05-07T05:05:13;10.00;99.90
2723;DHT22;1369;53.216;10.396;2023-05-07T05:07:39;10.10;99.90
2723;DHT22;1369;53.216;10.396;2023-05-07T05:10:05;10.00;99.90
2723;DHT22;1369;53.216;10.396;2023-05-07T05:12:31;10.10;99.90
2723;DHT22;1369;53.216;10.396;2023-05-07T05:14:56;10.20;99.90
2723;DHT22;1369;53.216;10.396;2023-05-07T05:17:22;10.10;99.90
2723;DHT22;1369;53.216;10.396;2023-05-07T05:19:48;10.10;99.90
2723;DHT22;1369;53.216;10.396;2023-05-07T05:22:13;10.00;99.90
2723;DHT22;1369;53.216;10.396;2023-05-07T05:24:38;10.00;99.90
2723;DHT22;1369;53.216;10.396;2023-05-07T05:27:04;9.90;99.90
2723;DHT22;1369;53.216;10.396;2023-05-07T05:29:30;9.90;99.90
2723;DHT22;1369;53.216;10.396;2023-05-07T05:31:57;10.00;99.90
2723;DHT22;1369;53.216;10.396;2023-05-07T05:34:22;10.00;99.90
2723;DHT22;1369;53.216;10.396;2023-05-07T05:36:48;10.00;99.90
2723;DHT22;1369;53.216;10.396;2023-05-07T05:39:13;10.10;99.90
2723;DHT22;1369;53.216;10.396;2023-05-07T05:41:39;10.10;99.90
2723;DHT22;1369;53.216;10.396;2023-05-07T05:44:05;10.10;99.90
2723;DHT22;1369;53.216;10.396;2023-05-07T05:46:30;10.20;99.90
2723;DHT22;1369;53.216;10.396;2023-05-07T05:48:56;10.20;99.90
2723;DHT22;1369;53.216;10.396;2023-05-07T05:51:22;10.20;99.90
2723;DHT22;1369;53.216;10.396;2023-05-07T05:53:48;10.10;99.90
2723;DHT22;1369;53.216;10.396;2023-05-07T05:56:14;10.10;99.90
2723;DHT22;1369;53.216;10.396;2023-05-07T05:58:40;10.10;99.90
2723;DHT22;1369;53.216;10.396;2023-05-07T06:01:06;10.00;99.90
2723;DHT22;1369;53.216;10.396;2023-05-07T06:03:31;10.00;99.90
2723;DHT22;1369;53.216;10.396;2023-05-07T06:06:00;10.00;99.90
2723;DHT22;1369;53.216;10.396;2023-05-07T06:08:28;10.10;99.90
2723;DHT22;1369;53.216;10.396;2023-05-07T06:10:54;10.20;99.90
2723;DHT22;1369;53.216;10.396;2023-05-07T06:13:20;10.20;99.90
2723;DHT22;1369;53.216;10.396;2023-05-07T06:15:45;10.20;99.90
2723;DHT22;1369;53.216;10.396;2023-05-07T06:18:11;10.20;99.90
2723;DHT22;1369;53.216;10.396;2023-05-07T06:20:36;10.20;99.90
2723;DHT22;1369;53.216;10.396;2023-05-07T06:23:02;10.20;99.90
2723;DHT22;1369;53.216;10.396;2023-05-07T06:25:27;10.30;99.90
2723;DHT22;1369;53.216;10.396;2023-05-07T06:27:53;10.30;99.90
2723;DHT22;1369;53.216;10.396;2023-05-07T06:30:19;10.40;99.90
2723;DHT22;1369;53.216;10.396;2023-05-07T06:32:44;10.40;99.90
2723;DHT22;1369;53.216;10.396;2023-05-07T06:35:10;10.40;99.90
2723;DHT22;1369;53.216;10.396;2023-05-07T06:37:35;10.50;99.90
2723;DHT22;1369;53.216;10.396;2023-05-07T06:40:04;10.50;99.90
2723;DHT22;1369;53.216;10.396;2023-05-07T06:42:30;10.60;99.90
2723;DHT22;1369;53.216;10.396;2023-05-07T06:44:55;10.50;99.90
2723;DHT22;1369;53.216;10.396;2023-05-07T06:47:21;10.50;99.90
2723;DHT22;1369;53.216;10.396;2023-05-07T06:49:46;10.60;99.90
2723;DHT22;1369;53.216;10.396;2023-05-07T06:52:12;10.50;99.90
2723;DHT22;1369;53.216;10.396;2023-05-07T06:54:37;10.60;99.90
2723;DHT22;1369;53.216;10.396;2023-05-07T06:57:03;10.40;99.90
2723;DHT22;1369;53.216;10.396;2023-05-07T06:59:28;10.50;99.90
2723;DHT22;1369;53.216;10.396;2023-05-07T07:01:54;10.50;99.90
2723;DHT22;1369;53.216;10.396;2023-05-07T07:04:19;10.50;99.90
2723;DHT22;1369;53.216;10.396;2023-05-07T07:06:45;10.50;99.90
2723;DHT22;1369;53.216;10.396;2023-05-07T07:09:11;10.50;99.90
2723;DHT22;1369;53.216;10.396;2023-05-07T07:11:36;10.60;99.90
2723;DHT22;1369;53.216;10.396;2023-05-07T07:14:02;10.60;99.90
2723;DHT22;1369;53.216;10.396;2023-05-07T07:16:27;10.70;99.90
2723;DHT22;1369;53.216;10.396;2023-05-07T07:18:53;10.70;99.90
2723;DHT22;1369;53.216;10.396;2023-05-07T07:21:18;10.80;99.90
2723;DHT22;1369;53.216;10.396;2023-05-07T07:23:44;10.90;99.90
2723;DHT22;1369;53.216;10.396;2023-05-07T07:26:09;10.90;99.90
2723;DHT22;1369;53.216;10.396;2023-05-07T07:28:35;10.90;99.90
2723;DHT22;1369;53.216;10.396;2023-05-07T07:31:00;11.00;99.90
2723;DHT22;1369;53.216;10.396;2023-05-07T07:33:26;11.00;99.90
2723;DHT22;1369;53.216;10.396;2023-05-07T07:35:52;11.00;99.90
2723;DHT22;1369;53.216;10.396;2023-05-07T07:38:17;11.00;99.90
2723;DHT22;1369;53.216;10.396;2023-05-07T07:40:43;10.90;99.90
2723;DHT22;1369;53.216;10.396;2023-05-07T07:43:09;10.90;99.90
2723;DHT22;1369;53.216;10.396;2023-05-07T07:45:34;10.80;99.90
2723;DHT22;1369;53.216;10.396;2023-05-07T07:48:00;10.90;99.90
2723;DHT22;1369;53.216;10.396;2023-05-07T07:50:26;10.90;99.90
2723;DHT22;1369;53.216;10.396;2023-05-07T07:52:52;10.90;99.90
2723;DHT22;1369;53.216;10.396;2023-05-07T07:55:19;11.00;99.90
2723;DHT22;1369;53.216;10.396;2023-05-07T07:57:48;10.90;99.90
2723;DHT22;1369;53.216;10.396;2023-05-07T08:00:14;11.10;99.90
2723;DHT22;1369;53.216;10.396;2023-05-07T08:02:40;11.20;99.90
2723;DHT22;1369;53.216;10.396;2023-05-07T08:05:06;11.30;99.90
2723;DHT22;1369;53.216;10.396;2023-05-07T08:07:32;11.30;99.90
2723;DHT22;1369;53.216;10.396;2023-05-07T08:09:57;11.30;99.90
2723;DHT22;1369;53.216;10.396;2023-05-07T08:12:23;11.40;99.90
2723;DHT22;1369;53.216;10.396;2023-05-07T08:14:48;11.40;99.90
2723;DHT22;1369;53.216;10.396;2023-05-07T08:17:14;11.50;99.90
2723;DHT22;1369;53.216;10.396;2023-05-07T08:19:41;11.60;99.90
2723;DHT22;1369;53.216;10.396;2023-05-07T08:22:06;11.60;99.90
2723;DHT22;1369;53.216;10.396;2023-05-07T08:24:32;11.60;99.90
2723;DHT22;1369;53.216;10.396;2023-05-07T08:26:57;11.60;99.90
2723;DHT22;1369;53.216;10.396;2023-05-07T08:29:23;11.60;99.90
2723;DHT22;1369;53.216;10.396;2023-05-07T08:31:48;11.80;99.90
2723;DHT22;1369;53.216;10.396;2023-05-07T08:34:14;11.80;99.90
2723;DHT22;1369;53.216;10.396;2023-05-07T08:36:39;11.80;99.90
2723;DHT22;1369;53.216;10.396;2023-05-07T08:39:07;12.00;99.90
2723;DHT22;1369;53.216;10.396;2023-05-07T08:41:32;12.10;99.90
2723;DHT22;1369;53.216;10.396;2023-05-07T08:43:59;12.20;99.90
2723;DHT22;1369;53.216;10.396;2023-05-07T08:46:25;12.30;99.90
2723;DHT22;1369;53.216;10.396;2023-05-07T08:48:51;12.20;99.90
2723;DHT22;1369;53.216;10.396;2023-05-07T08:51:18;12.10;99.90
2723;DHT22;1369;53.216;10.396;2023-05-07T08:53:45;12.10;99.90
2723;DHT22;1369;53.216;10.396;2023-05-07T08:56:11;12.00;99.90
2723;DHT22;1369;53.216;10.396;2023-05-07T08:58:37;12.10;99.90
2723;DHT22;1369;53.216;10.396;2023-05-07T09:01:15;12.10;99.90
2723;DHT22;1369;53.216;10.396;2023-05-07T09:03:44;12.10;99.90
2723;DHT22;1369;53.216;10.396;2023-05-07T09:06:10;12.00;99.90
2723;DHT22;1369;53.216;10.396;2023-05-07T09:08:36;12.00;99.90
2723;DHT22;1369;53.216;10.396;2023-05-07T09:11:02;12.10;99.90
2723;DHT22;1369;53.216;10.396;2023-05-07T09:13:28;12.00;99.90
2723;DHT22;1369;53.216;10.396;2023-05-07T09:15:54;12.10;99.90
2723;DHT22;1369;53.216;10.396;2023-05-07T09:18:20;12.30;99.90
2723;DHT22;1369;53.216;10.396;2023-05-07T09:20:45;12.50;99.90
2723;DHT22;1369;53.216;10.396;2023-05-07T09:23:11;12.70;99.90
2723;DHT22;1369;53.216;10.396;2023-05-07T09:25:36;12.90;99.90
2723;DHT22;1369;53.216;10.396;2023-05-07T09:28:03;13.00;99.90
2723;DHT22;1369;53.216;10.396;2023-05-07T09:30:30;13.10;99.90
2723;DHT22;1369;53.216;10.396;2023-05-07T09:32:57;13.10;99.90
2723;DHT22;1369;53.216;10.396;2023-05-07T09:35:23;13.00;99.90
2723;DHT22;1369;53.216;10.396;2023-05-07T09:37:53;12.90;99.90
2723;DHT22;1369;53.216;10.396;2023-05-07T09:40:26;13.00;99.90
2723;DHT22;1369;53.216;10.396;2023-05-07T09:42:52;13.10;99.90
2723;DHT22;1369;53.216;10.396;2023-05-07T09:45:27;13.20;99.90
2723;DHT22;1369;53.216;10.396;2023-05-07T09:47:57;13.30;99.90
2723;DHT22;1369;53.216;10.396;2023-05-07T09:50:27;13.30;99.90
2723;DHT22;1369;53.216;10.396;2023-05-07T09:52:55;13.30;99.90
2723;DHT22;1369;53.216;10.396;2023-05-07T09:55:21;13.30;99.90
2723;DHT22;1369;53.216;10.396;2023-05-07T09:57:50;13.20;99.90
2723;DHT22;1369;53.216;10.396;2023-05-07T10:00:18;13.30;99.90
2723;DHT22;1369;53.216;10.396;2023-05-07T10:02:46;13.10;99.90
2723;DHT22;1369;53.216;10.396;2023-05-07T10:05:14;13.00;99.90
2723;DHT22;1369;53.216;10.396;2023-05-07T10:07:41;12.80;99.90
2723;DHT22;1369;53.216;10.396;2023-05-07T10:10:07;12.80;99.90
2723;DHT22;1369;53.216;10.396;2023-05-07T10:12:32;12.50;99.90
2723;DHT22;1369;53.216;10.396;2023-05-07T10:15:08;12.50;99.90
2723;DHT22;1369;53.216;10.396;2023-05-07T10:17:38;12.50;99.90
2723;DHT22;1369;53.216;10.396;2023-05-07T10:20:05;12.60;99.90
2723;DHT22;1369;53.216;10.396;2023-05-07T10:22:47;12.50;99.90
2723;DHT22;1369;53.216;10.396;2023-05-07T10:25:22;12.70;99.90
2723;DHT22;1369;53.216;10.396;2023-05-07T10:27:50;12.80;99.90
2723;DHT22;1369;53.216;10.396;2023-05-07T10:30:34;12.90;99.90
2723;DHT22;1369;53.216;10.396;2023-05-07T10:33:04;12.90;99.90
2723;DHT22;1369;53.216;10.396;2023-05-07T10:35:37;13.00;99.90
2723;DHT22;1369;53.216;10.396;2023-05-07T10:38:04;13.10;99.90
2723;DHT22;1369;53.216;10.396;2023-05-07T10:40:31;13.00;99.90
2723;DHT22;1369;53.216;10.396;2023-05-07T10:42:58;13.20;99.90
2723;DHT22;1369;53.216;10.396;2023-05-07T10:45:26;13.40;99.90
2723;DHT22;1369;53.216;10.396;2023-05-07T10:48:11;13.60;99.90
2723;DHT22;1369;53.216;10.396;2023-05-07T10:50:41;13.60;99.90
2723;DHT22;1369;53.216;10.396;2023-05-07T10:55:48;13.70;99.90
2723;DHT22;1369;53.216;10.396;2023-05-07T10:58:27;13.40;99.90
2723;DHT22;1369;53.216;10.396;2023-05-07T11:01:02;13.60;99.90
2723;DHT22;1369;53.216;10.396;2023-05-07T11:03:29;13.90;99.90
2723;DHT22;1369;53.216;10.396;2023-05-07T11:06:12;13.90;99.90
2723;DHT22;1369;53.216;10.396;2023-05-07T11:09:04;13.90;99.90
2723;DHT22;1369;53.216;10.396;2023-05-07T11:11:49;13.80;99.90
2723;DHT22;1369;53.216;10.396;2023-05-07T11:17:09;13.90;99.90
2723;DHT22;1369;53.216;10.396;2023-05-07T11:19:54;14.00;99.90
2723;DHT22;1369;53.216;10.396;2023-05-07T11:25:02;13.90;99.90
2723;DHT22;1369;53.216;10.396;2023-05-07T11:27:29;14.10;99.90
2723;DHT22;1369;53.216;10.396;2023-05-07T11:29:55;14.30;99.90
2723;DHT22;1369;53.216;10.396;2023-05-07T11:32:25;14.50;99.90
2723;DHT22;1369;53.216;10.396;2023-05-07T11:34:52;14.70;99.90
2723;DHT22;1369;53.216;10.396;2023-05-07T11:37:18;14.70;99.90
2723;DHT22;1369;53.216;10.396;2023-05-07T11:39:44;14.60;99.90
2723;DHT22;1369;53.216;10.396;2023-05-07T11:42:29;14.70;99.90
2723;DHT22;1369;53.216;10.396;2023-05-07T11:44:54;14.40;99.90
2723;DHT22;1369;53.216;10.396;2023-05-07T11:47:20;14.60;99.90
2723;DHT22;1369;53.216;10.396;2023-05-07T11:49:50;14.60;99.90
2723;DHT22;1369;53.216;10.396;2023-05-07T11:52:20;14.70;99.90
2723;DHT22;1369;53.216;10.396;2023-05-07T11:54:50;15.00;99.90
2723;DHT22;1369;53.216;10.396;2023-05-07T11:57:15;15.10;99.90
2723;DHT22;1369;53.216;10.396;2023-05-07T11:59:41;15.10;99.90
2723;DHT22;1369;53.216;10.396;2023-05-07T12:02:07;15.00;99.90
2723;DHT22;1369;53.216;10.396;2023-05-07T12:04:33;15.20;99.90
2723;DHT22;1369;53.216;10.396;2023-05-07T12:06:59;15.20;99.90
2723;DHT22;1369;53.216;10.396;2023-05-07T12:09:24;15.00;99.90
2723;DHT22;1369;53.216;10.396;2023-05-07T12:11:51;15.00;99.90
2723;DHT22;1369;53.216;10.396;2023-05-07T12:14:17;15.00;99.90
2723;DHT22;1369;53.216;10.396;2023-05-07T12:16:43;15.10;99.90
2723;DHT22;1369;53.216;10.396;2023-05-07T12:19:10;15.10;99.90
2723;DHT22;1369;53.216;10.396;2023-05-07T12:21:40;15.10;99.90
2723;DHT22;1369;53.216;10.396;2023-05-07T12:24:06;15.20;99.90
2723;DHT22;1369;53.216;10.396;2023-05-07T12:26:31;15.40;99.90
2723;DHT22;1369;53.216;10.396;2023-05-07T12:28:57;15.40;99.90
2723;DHT22;1369;53.216;10.396;2023-05-07T12:31:25;15.50;99.90
2723;DHT22;1369;53.216;10.396;2023-05-07T12:33:50;15.60;99.90
2723;DHT22;1369;53.216;10.396;2023-05-07T12:36:16;15.50;99.90
2723;DHT22;1369;53.216;10.396;2023-05-07T12:38:41;15.30;99.90
2723;DHT22;1369;53.216;10.396;2023-05-07T12:41:08;15.10;99.90
2723;DHT22;1369;53.216;10.396;2023-05-07T12:43:34;15.10;99.90
2723;DHT22;1369;53.216;10.396;2023-05-07T12:46:03;15.30;99.90
2723;DHT22;1369;53.216;10.396;2023-05-07T12:48:29;15.60;99.90
2723;DHT22;1369;53.216;10.396;2023-05-07T12:50:55;15.80;99.90
2723;DHT22;1369;53.216;10.396;2023-05-07T12:53:22;15.90;99.90
2723;DHT22;1369;53.216;10.396;2023-05-07T12:55:50;16.20;99.90
2723;DHT22;1369;53.216;10.396;2023-05-07T12:58:21;16.10;99.90
2723;DHT22;1369;53.216;10.396;2023-05-07T13:00:50;16.50;99.90
2723;DHT22;1369;53.216;10.396;2023-05-07T13:03:23;16.90;99.90
2723;DHT22;1369;53.216;10.396;2023-05-07T13:05:49;17.20;99.90
2723;DHT22;1369;53.216;10.396;2023-05-07T13:08:30;17.10;99.90
2723;DHT22;1369;53.216;10.396;2023-05-07T13:10:58;17.30;99.90
2723;DHT22;1369;53.216;10.396;2023-05-07T13:13:23;17.50;99.90
2723;DHT22;1369;53.216;10.396;2023-05-07T13:15:49;17.20;99.90
2723;DHT22;1369;53.216;10.396;2023-05-07T13:18:14;17.20;99.90
2723;DHT22;1369;53.216;10.396;2023-05-07T13:20:40;17.20;99.90
2723;DHT22;1369;53.216;10.396;2023-05-07T13:23:06;17.10;99.90
2723;DHT22;1369;53.216;10.396;2023-05-07T13:25:31;17.00;99.90
2723;DHT22;1369;53.216;10.396;2023-05-07T13:27:57;16.80;99.90
2723;DHT22;1369;53.216;10.396;2023-05-07T13:30:22;16.70;99.90
2723;DHT22;1369;53.216;10.396;2023-05-07T13:32:48;16.60;99.90
2723;DHT22;1369;53.216;10.396;2023-05-07T13:35:15;16.40;99.90
2723;DHT22;1369;53.216;10.396;2023-05-07T13:37:40;16.20;99.90
2723;DHT22;1369;53.216;10.396;2023-05-07T13:40:06;16.30;99.90
2723;DHT22;1369;53.216;10.396;2023-05-07T13:42:32;16.40;99.90
2723;DHT22;1369;53.216;10.396;2023-05-07T13:44:58;16.50;99.90
2723;DHT22;1369;53.216;10.396;2023-05-07T13:47:23;16.70;99.90
2723;DHT22;1369;53.216;10.396;2023-05-07T13:49:49;16.70;99.90
2723;DHT22;1369;53.216;10.396;2023-05-07T13:52:15;16.80;99.90
2723;DHT22;1369;53.216;10.396;2023-05-07T13:54:41;16.80;99.90
2723;DHT22;1369;53.216;10.396;2023-05-07T13:57:06;16.80;99.90
2723;DHT22;1369;53.216;10.396;2023-05-07T13:59:32;16.80;99.90
2723;DHT22;1369;53.216;10.396;2023-05-07T14:01:58;16.80;99.90
2723;DHT22;1369;53.216;10.396;2023-05-07T14:04:23;16.80;99.90
2723;DHT22;1369;53.216;10.396;2023-05-07T14:06:49;16.70;99.90
2723;DHT22;1369;53.216;10.396;2023-05-07T14:09:14;16.50;99.90
2723;DHT22;1369;53.216;10.396;2023-05-07T14:11:40;16.50;99.90
2723;DHT22;1369;53.216;10.396;2023-05-07T14:14:06;16.70;99.90
2723;DHT22;1369;53.216;10.396;2023-05-07T14:16:31;16.80;99.90
2723;DHT22;1369;53.216;10.396;2023-05-07T14:18:57;16.90;99.90
2723;DHT22;1369;53.216;10.396;2023-05-07T14:21:22;17.00;99.90
2723;DHT22;1369;53.216;10.396;2023-05-07T14:23:48;17.10;99.90
2723;DHT22;1369;53.216;10.396;2023-05-07T14:26:13;17.00;99.90
2723;DHT22;1369;53.216;10.396;2023-05-07T14:28:39;17.10;99.90
2723;DHT22;1369;53.216;10.396;2023-05-07T14:31:05;17.20;99.90
2723;DHT22;1369;53.216;10.396;2023-05-07T14:33:31;17.20;99.90
2723;DHT22;1369;53.216;10.396;2023-05-07T14:35:57;17.20;99.90
2723;DHT22;1369;53.216;10.396;2023-05-07T14:38:22;17.30;99.90
2723;DHT22;1369;53.216;10.396;2023-05-07T14:40:48;17.50;99.90
2723;DHT22;1369;53.216;10.396;2023-05-07T14:43:13;17.40;99.90
2723;DHT22;1369;53.216;10.396;2023-05-07T14:45:39;17.50;99.90
2723;DHT22;1369;53.216;10.396;2023-05-07T14:48:04;17.40;99.90
2723;DHT22;1369;53.216;10.396;2023-05-07T14:50:30;17.30;99.90
2723;DHT22;1369;53.216;10.396;2023-05-07T14:52:56;17.20;99.90
2723;DHT22;1369;53.216;10.396;2023-05-07T14:55:21;17.20;99.90
2723;DHT22;1369;53.216;10.396;2023-05-07T14:57:47;17.10;99.90
2723;DHT22;1369;53.216;10.396;2023-05-07T15:00:12;17.10;99.90
2723;DHT22;1369;53.216;10.396;2023-05-07T15:02:38;17.20;99.90
2723;DHT22;1369;53.216;10.396;2023-05-07T15:05:04;17.10;99.90
2723;DHT22;1369;53.216;10.396;2023-05-07T15:07:30;17.00;99.90
2723;DHT22;1369;53.216;10.396;2023-05-07T15:09:57;17.00;99.90
2723;DHT22;1369;53.216;10.396;2023-05-07T15:12:23;16.90;99.90
2723;DHT22;1369;53.216;10.396;2023-05-07T15:14:48;17.00;99.90
2723;DHT22;1369;53.216;10.396;2023-05-07T15:17:14;17.10;99.90
2723;DHT22;1369;53.216;10.396;2023-05-07T15:19:40;17.10;99.90
2723;DHT22;1369;53.216;10.396;2023-05-07T15:22:05;17.00;99.90
2723;DHT22;1369;53.216;10.396;2023-05-07T15:24:31;16.80;99.90
2723;DHT22;1369;53.216;10.396;2023-05-07T15:26:56;16.90;99.90
2723;DHT22;1369;53.216;10.396;2023-05-07T15:29:23;16.80;99.90
2723;DHT22;1369;53.216;10.396;2023-05-07T15:31:49;16.80;99.90
2723;DHT22;1369;53.216;10.396;2023-05-07T15:34:15;16.70;99.90
2723;DHT22;1369;53.216;10.396;2023-05-07T15:36:41;16.60;99.90
2723;DHT22;1369;53.216;10.396;2023-05-07T15:39:06;16.50;99.90
2723;DHT22;1369;53.216;10.396;2023-05-07T15:41:32;16.30;99.90
2723;DHT22;1369;53.216;10.396;2023-05-07T15:43:57;16.20;99.90
2723;DHT22;1369;53.216;10.396;2023-05-07T15:46:24;16.10;99.90
2723;DHT22;1369;53.216;10.396;2023-05-07T15:48:50;16.20;99.90
2723;DHT22;1369;53.216;10.396;2023-05-07T15:51:16;16.20;99.90
2723;DHT22;1369;53.216;10.396;2023-05-07T15:53:43;16.20;99.90